sensor_id;sensor_type;location;lat;lon;timestamp;temperature;humidity
23289;DHT22;11813;50.834;4.280;2024-02-15T00:01:21;14.10;99.90
23289;DHT22;11813;50.834;4.280;2024-02-15T00:03:47;14.00;99.90
23289;DHT22;11813;50.834;4.280;2024-02-15T00:06:13;14.10;99.90
23289;DHT22;11813;50.834;4.280;2024-02-15T00:08:39;14.00;99.90
23289;DHT22;11813;50.834;4.280;2024-02-15T00:11:05;14.10;99.90
23289;DHT22;11813;50.834;4.280;2024-02-15T00:13:30;14.10;99.90
23289;DHT22;11813;50.834;4.280;2024-02-15T00:15:58;14.00;99.90
23289;DHT22;11813;50.834;4.280;2024-02-15T00:18:25;14.10;99.90
23289;DHT22;11813;50.834;4.280;2024-02-15T00:20:50;14.20;99.90
23289;DHT22;11813;50.834;4.280;2024-02-15T00:23:16;14.20;99.90
23289;DHT22;11813;50.834;4.280;2024-02-15T00:25:42;14.20;99.90
23289;DHT22;11813;50.834;4.280;2024-02-15T00:28:10;14.20;99.90
23289;DHT22;11813;50.834;4.280;2024-02-15T00:30:37;14.20;99.90
23289;DHT22;11813;50.834;4.280;2024-02-15T00:33:02;14.20;99.90
23289;DHT22;11813;50.834;4.280;2024-02-15T00:35:28;14.10;99.90
23289;DHT22;11813;50.834;4.280;2024-02-15T00:37:54;14.00;99.90
23289;DHT22;11813;50.834;4.280;2024-02-15T00:40:20;14.00;99.90
23289;DHT22;11813;50.834;4.280;2024-02-15T00:42:46;14.00;99.90
23289;DHT22;11813;50.834;4.280;2024-02-15T00:45:12;14.00;99.90
23289;DHT22;11813;50.834;4.280;2024-02-15T00:47:38;14.00;99.90
23289;DHT22;11813;50.834;4.280;2024-02-15T00:50:04;14.00;99.90
23289;DHT22;11813;50.834;4.280;2024-02-15T00:52:30;14.00;99.90
23289;DHT22;11813;50.834;4.280;2024-02-15T00:54:56;14.10;99.90
23289;DHT22;11813;50.834;4.280;2024-02-15T00:57:22;14.10;99.90
23289;DHT22;11813;50.834;4.280;2024-02-15T00:59:47;14.00;99.90
23289;DHT22;11813;50.834;4.280;2024-02-15T01:02:14;14.00;99.90
23289;DHT22;11813;50.834;4.280;2024-02-15T01:04:39;14.10;99.90
23289;DHT22;11813;50.834;4.280;2024-02-15T01:07:05;14.10;99.90
23289;DHT22;11813;50.834;4.280;2024-02-15T01:09:31;14.10;99.90
23289;DHT22;11813;50.834;4.280;2024-02-15T01:11:56;14.20;99.90
23289;DHT22;11813;50.834;4.280;2024-02-15T01:14:22;14.20;99.90
23289;DHT22;11813;50.834;4.280;2024-02-15T01:16:47;14.20;99.90
23289;DHT22;11813;50.834;4.280;2024-02-15T01:19:13;14.20;99.90
23289;DHT22;11813;50.834;4.280;2024-02-15T01:21:38;14.20;99.90
23289;DHT22;11813;50.834;4.280;2024-02-15T01:24:04;14.10;99.90
23289;DHT22;11813;50.834;4.280;2024-02-15T01:26:32;14.10;99.90
23289;DHT22;11813;50.834;4.280;2024-02-15T01:28:58;14.20;99.90
23289;DHT22;11813;50.834;4.280;2024-02-15T01:31:23;14.10;99.90
23289;DHT22;11813;50.834;4.280;2024-02-15T01:33:49;14.10;99.90
23289;DHT22;11813;50.834;4.280;2024-02-15T01:36:15;14.10;99.90
23289;DHT22;11813;50.834;4.280;2024-02-15T01:38:41;14.00;99.90
23289;DHT22;11813;50.834;4.280;2024-02-15T01:41:08;13.90;99.90
23289;DHT22;11813;50.834;4.280;2024-02-15T01:43:34;13.90;99.90
23289;DHT22;11813;50.834;4.280;2024-02-15T01:46:00;13.80;99.90
23289;DHT22;11813;50.834;4.280;2024-02-15T01:48:30;13.90;99.90
23289;DHT22;11813;50.834;4.280;2024-02-15T01:50:56;13.90;99.90
23289;DHT22;11813;50.834;4.280;2024-02-15T01:53:23;13.90;99.90
23289;DHT22;11813;50.834;4.280;2024-02-15T01:55:50;13.90;99.90
23289;DHT22;11813;50.834;4.280;2024-02-15T01:58:16;13.80;99.90
23289;DHT22;11813;50.834;4.280;2024-02-15T02:00:42;13.80;99.90
23289;DHT22;11813;50.834;4.280;2024-02-15T02:03:08;13.90;99.90
23289;DHT22;11813;50.834;4.280;2024-02-15T02:05:36;13.80;99.90
23289;DHT22;11813;50.834;4.280;2024-02-15T02:08:01;13.80;99.90
23289;DHT22;11813;50.834;4.280;2024-02-15T02:10:30;13.90;99.90
23289;DHT22;11813;50.834;4.280;2024-02-15T02:12:59;14.00;99.90
23289;DHT22;11813;50.834;4.280;2024-02-15T02:15:26;13.90;99.90
23289;DHT22;11813;50.834;4.280;2024-02-15T02:17:53;13.90;99.90
23289;DHT22;11813;50.834;4.280;2024-02-15T02:20:19;13.90;99.90
23289;DHT22;11813;50.834;4.280;2024-02-15T02:22:48;13.90;99.90
23289;DHT22;11813;50.834;4.280;2024-02-15T02:25:16;13.90;99.90
23289;DHT22;11813;50.834;4.280;2024-02-15T02:27:42;13.90;99.90
23289;DHT22;11813;50.834;4.280;2024-02-15T02:30:15;13.80;99.90
23289;DHT22;11813;50.834;4.280;2024-02-15T02:32:42;13.80;99.90
23289;DHT22;11813;50.834;4.280;2024-02-15T02:35:08;13.80;99.90
23289;DHT22;11813;50.834;4.280;2024-02-15T02:37:37;13.70;99.90
23289;DHT22;11813;50.834;4.280;2024-02-15T02:40:06;13.70;99.90
23289;DHT22;11813;50.834;4.280;2024-02-15T02:42:49;13.70;99.90
23289;DHT22;11813;50.834;4.280;2024-02-15T02:45:15;13.70;99.90
23289;DHT22;11813;50.834;4.280;2024-02-15T02:47:41;13.70;99.90
23289;DHT22;11813;50.834;4.280;2024-02-15T02:50:06;13.70;99.90
23289;DHT22;11813;50.834;4.280;2024-02-15T02:52:33;13.80;99.90
23289;DHT22;11813;50.834;4.280;2024-02-15T02:54:59;13.80;99.90
23289;DHT22;11813;50.834;4.280;2024-02-15T02:57:24;13.80;99.90
23289;DHT22;11813;50.834;4.280;2024-02-15T02:59:51;13.70;99.90
23289;DHT22;11813;50.834;4.280;2024-02-15T03:02:17;13.70;99.90
23289;DHT22;11813;50.834;4.280;2024-02-15T03:04:43;13.70;99.90
23289;DHT22;11813;50.834;4.280;2024-02-15T03:07:09;13.70;99.90
23289;DHT22;11813;50.834;4.280;2024-02-15T03:09:34;13.70;99.90
23289;DHT22;11813;50.834;4.280;2024-02-15T03:12:02;13.70;99.90
23289;DHT22;11813;50.834;4.280;2024-02-15T03:14:28;13.60;99.90
23289;DHT22;11813;50.834;4.280;2024-02-15T03:16:56;13.60;99.90
23289;DHT22;11813;50.834;4.280;2024-02-15T03:19:22;13.60;99.90
23289;DHT22;11813;50.834;4.280;2024-02-15T03:21:48;13.60;99.90
23289;DHT22;11813;50.834;4.280;2024-02-15T03:24:14;13.60;99.90
23289;DHT22;11813;50.834;4.280;2024-02-15T03:26:39;13.70;99.90
23289;DHT22;11813;50.834;4.280;2024-02-15T03:29:05;13.70;99.90
23289;DHT22;11813;50.834;4.280;2024-02-15T03:31:33;13.70;99.90
23289;DHT22;11813;50.834;4.280;2024-02-15T03:34:00;13.80;99.90
23289;DHT22;11813;50.834;4.280;2024-02-15T03:36:25;13.80;99.90
23289;DHT22;11813;50.834;4.280;2024-02-15T03:38:51;13.90;99.90
23289;DHT22;11813;50.834;4.280;2024-02-15T03:41:19;13.90;99.90
23289;DHT22;11813;50.834;4.280;2024-02-15T03:43:45;13.90;99.90
23289;DHT22;11813;50.834;4.280;2024-02-15T03:46:12;13.80;99.90
23289;DHT22;11813;50.834;4.280;2024-02-15T03:48:38;13.90;99.90
23289;DHT22;11813;50.834;4.280;2024-02-15T03:51:04;13.80;99.90
23289;DHT22;11813;50.834;4.280;2024-02-15T03:53:31;13.90;99.90
23289;DHT22;11813;50.834;4.280;2024-02-15T03:55:59;13.90;99.90
23289;DHT22;11813;50.834;4.280;2024-02-15T03:58:26;13.90;99.90
23289;DHT22;11813;50.834;4.280;2024-02-15T04:00:51;13.80;99.90
23289;DHT22;11813;50.834;4.280;2024-02-15T04:03:17;13.70;99.90
23289;DHT22;11813;50.834;4.280;2024-02-15T04:05:42;13.70;99.90
23289;DHT22;11813;50.834;4.280;2024-02-15T04:08:08;13.60;99.90
23289;DHT22;11813;50.834;4.280;2024-02-15T04:10:34;13.60;99.90
23289;DHT22;11813;50.834;4.280;2024-02-15T04:12:59;13.60;99.90
23289;DHT22;11813;50.834;4.280;2024-02-15T04:15:25;13.60;99.90
23289;DHT22;11813;50.834;4.280;2024-02-15T04:17:50;13.60;99.90
23289;DHT22;11813;50.834;4.280;2024-02-15T04:20:22;13.60;99.90
23289;DHT22;11813;50.834;4.280;2024-02-15T04:22:47;13.70;99.90
23289;DHT22;11813;50.834;4.280;2024-02-15T04:25:15;13.60;99.90
23289;DHT22;11813;50.834;4.280;2024-02-15T04:27:48;13.70;99.90
23289;DHT22;11813;50.834;4.280;2024-02-15T04:30:14;13.60;99.90
23289;DHT22;11813;50.834;4.280;2024-02-15T04:32:43;13.70;99.90
23289;DHT22;11813;50.834;4.280;2024-02-15T04:35:09;13.70;99.90
23289;DHT22;11813;50.834;4.280;2024-02-15T04:37:35;13.60;99.90
23289;DHT22;11813;50.834;4.280;2024-02-15T04:40:03;13.70;99.90
23289;DHT22;11813;50.834;4.280;2024-02-15T04:42:38;13.70;99.90
23289;DHT22;11813;50.834;4.280;2024-02-15T04:45:09;13.70;99.90
23289;DHT22;11813;50.834;4.280;2024-02-15T04:47:38;13.60;99.90
23289;DHT22;11813;50.834;4.280;2024-02-15T04:50:04;13.50;99.90
23289;DHT22;11813;50.834;4.280;2024-02-15T04:52:31;13.60;99.90
23289;DHT22;11813;50.834;4.280;2024-02-15T04:54:57;13.70;99.90
23289;DHT22;11813;50.834;4.280;2024-02-15T04:57:25;13.70;99.90
23289;DHT22;11813;50.834;4.280;2024-02-15T04:59:54;13.70;99.90
23289;DHT22;11813;50.834;4.280;2024-02-15T05:02:20;13.70;99.90
23289;DHT22;11813;50.834;4.280;2024-02-15T05:04:47;13.80;99.90
23289;DHT22;11813;50.834;4.280;2024-02-15T05:07:13;13.80;99.90
23289;DHT22;11813;50.834;4.280;2024-02-15T05:09:42;13.80;99.90
23289;DHT22;11813;50.834;4.280;2024-02-15T05:12:08;13.80;99.90
23289;DHT22;11813;50.834;4.280;2024-02-15T05:14:33;13.90;99.90
23289;DHT22;11813;50.834;4.280;2024-02-15T05:17:01;13.80;99.90
23289;DHT22;11813;50.834;4.280;2024-02-15T05:19:27;13.80;99.90
23289;DHT22;11813;50.834;4.280;2024-02-15T05:21:55;13.80;99.90
23289;DHT22;11813;50.834;4.280;2024-02-15T05:24:20;13.70;99.90
23289;DHT22;11813;50.834;4.280;2024-02-15T05:26:46;13.70;99.90
23289;DHT22;11813;50.834;4.280;2024-02-15T05:29:13;13.60;99.90
23289;DHT22;11813;50.834;4.280;2024-02-15T05:31:38;13.70;99.90
23289;DHT22;11813;50.834;4.280;2024-02-15T05:34:06;13.70;99.90
23289;DHT22;11813;50.834;4.280;2024-02-15T05:36:37;13.80;99.90
23289;DHT22;11813;50.834;4.280;2024-02-15T05:39:03;13.80;99.90
23289;DHT22;11813;50.834;4.280;2024-02-15T05:41:29;13.80;99.90
23289;DHT22;11813;50.834;4.280;2024-02-15T05:43:55;13.80;99.90
23289;DHT22;11813;50.834;4.280;2024-02-15T05:46:23;13.80;99.90
23289;DHT22;11813;50.834;4.280;2024-02-15T05:48:49;13.80;99.90
23289;DHT22;11813;50.834;4.280;2024-02-15T05:51:15;13.90;99.90
23289;DHT22;11813;50.834;4.280;2024-02-15T05:53:41;13.80;99.90
23289;DHT22;11813;50.834;4.280;2024-02-15T05:56:08;13.70;99.90
23289;DHT22;11813;50.834;4.280;2024-02-15T05:58:34;13.80;99.90
23289;DHT22;11813;50.834;4.280;2024-02-15T06:01:01;13.70;99.90
23289;DHT22;11813;50.834;4.280;2024-02-15T06:03:31;13.70;99.90
23289;DHT22;11813;50.834;4.280;2024-02-15T06:05:58;13.70;99.90
23289;DHT22;11813;50.834;4.280;2024-02-15T06:08:25;13.70;99.90
23289;DHT22;11813;50.834;4.280;2024-02-15T06:10:51;13.70;99.90
23289;DHT22;11813;50.834;4.280;2024-02-15T06:13:18;13.80;99.90
23289;DHT22;11813;50.834;4.280;2024-02-15T06:15:44;13.80;99.90
23289;DHT22;11813;50.834;4.280;2024-02-15T06:18:12;13.70;99.90
23289;DHT22;11813;50.834;4.280;2024-02-15T06:20:40;13.70;99.90
23289;DHT22;11813;50.834;4.280;2024-02-15T06:23:06;13.70;99.90
23289;DHT22;11813;50.834;4.280;2024-02-15T06:25:33;13.70;99.90
23289;DHT22;11813;50.834;4.280;2024-02-15T06:28:00;13.70;99.90
23289;DHT22;11813;50.834;4.280;2024-02-15T06:30:28;13.70;99.90
23289;DHT22;11813;50.834;4.280;2024-02-15T06:33:13;13.60;99.90
23289;DHT22;11813;50.834;4.280;2024-02-15T06:35:57;13.60;99.90
23289;DHT22;11813;50.834;4.280;2024-02-15T06:38:41;13.60;99.90
23289;DHT22;11813;50.834;4.280;2024-02-15T06:41:25;13.60;99.90
23289;DHT22;11813;50.834;4.280;2024-02-15T06:43:51;13.60;99.90
23289;DHT22;11813;50.834;4.280;2024-02-15T06:46:17;13.70;99.90
23289;DHT22;11813;50.834;4.280;2024-02-15T06:48:44;13.70;99.90
23289;DHT22;11813;50.834;4.280;2024-02-15T06:51:13;13.70;99.90
23289;DHT22;11813;50.834;4.280;2024-02-15T06:53:40;13.70;99.90
23289;DHT22;11813;50.834;4.280;2024-02-15T06:56:09;13.70;99.90
23289;DHT22;11813;50.834;4.280;2024-02-15T06:58:35;13.80;99.90
23289;DHT22;11813;50.834;4.280;2024-02-15T07:01:01;13.80;99.90
23289;DHT22;11813;50.834;4.280;2024-02-15T07:03:28;13.80;99.90
23289;DHT22;11813;50.834;4.280;2024-02-15T07:05:55;13.80;99.90
23289;DHT22;11813;50.834;4.280;2024-02-15T07:08:21;13.70;99.90
23289;DHT22;11813;50.834;4.280;2024-02-15T07:10:48;13.80;99.90
23289;DHT22;11813;50.834;4.280;2024-02-15T07:13:14;13.70;99.90
23289;DHT22;11813;50.834;4.280;2024-02-15T07:15:40;13.80;99.90
23289;DHT22;11813;50.834;4.280;2024-02-15T07:18:06;13.80;99.90
23289;DHT22;11813;50.834;4.280;2024-02-15T07:20:33;13.80;99.90
23289;DHT22;11813;50.834;4.280;2024-02-15T07:22:58;13.80;99.90
23289;DHT22;11813;50.834;4.280;2024-02-15T07:25:24;13.80;99.90
23289;DHT22;11813;50.834;4.280;2024-02-15T07:27:49;13.80;99.90
23289;DHT22;11813;50.834;4.280;2024-02-15T07:30:15;13.80;99.90
23289;DHT22;11813;50.834;4.280;2024-02-15T07:32:41;13.70;99.90
23289;DHT22;11813;50.834;4.280;2024-02-15T07:35:07;13.80;99.90
23289;DHT22;11813;50.834;4.280;2024-02-15T07:37:33;13.80;99.90
23289;DHT22;11813;50.834;4.280;2024-02-15T07:39:59;13.90;99.90
23289;DHT22;11813;50.834;4.280;2024-02-15T07:42:25;13.90;99.90
23289;DHT22;11813;50.834;4.280;2024-02-15T07:44:51;13.90;99.90
23289;DHT22;11813;50.834;4.280;2024-02-15T07:47:18;13.90;99.90
23289;DHT22;11813;50.834;4.280;2024-02-15T07:49:46;14.00;99.90
23289;DHT22;11813;50.834;4.280;2024-02-15T07:52:13;14.00;99.90
23289;DHT22;11813;50.834;4.280;2024-02-15T07:54:39;14.00;99.90
23289;DHT22;11813;50.834;4.280;2024-02-15T07:57:04;14.10;99.90
23289;DHT22;11813;50.834;4.280;2024-02-15T07:59:30;14.10;99.90
23289;DHT22;11813;50.834;4.280;2024-02-15T08:01:56;14.20;99.90
23289;DHT22;11813;50.834;4.280;2024-02-15T08:04:21;14.20;99.90
23289;DHT22;11813;50.834;4.280;2024-02-15T08:06:48;14.30;99.90
23289;DHT22;11813;50.834;4.280;2024-02-15T08:09:15;14.30;99.90
23289;DHT22;11813;50.834;4.280;2024-02-15T08:11:43;14.30;99.90
23289;DHT22;11813;50.834;4.280;2024-02-15T08:14:09;14.30;99.90
23289;DHT22;11813;50.834;4.280;2024-02-15T08:16:36;14.30;99.90
23289;DHT22;11813;50.834;4.280;2024-02-15T08:19:03;14.20;99.90
23289;DHT22;11813;50.834;4.280;2024-02-15T08:21:31;14.30;99.90
23289;DHT22;11813;50.834;4.280;2024-02-15T08:24:03;14.40;99.90
23289;DHT22;11813;50.834;4.280;2024-02-15T08:26:38;14.50;99.90
23289;DHT22;11813;50.834;4.280;2024-02-15T08:29:05;14.50;99.90
23289;DHT22;11813;50.834;4.280;2024-02-15T08:31:32;14.50;99.90
23289;DHT22;11813;50.834;4.280;2024-02-15T08:33:58;14.60;99.90
23289;DHT22;11813;50.834;4.280;2024-02-15T08:36:23;14.70;99.90
23289;DHT22;11813;50.834;4.280;2024-02-15T08:38:50;14.70;99.90
23289;DHT22;11813;50.834;4.280;2024-02-15T08:41:16;14.70;99.90
23289;DHT22;11813;50.834;4.280;2024-02-15T08:43:44;14.70;99.90
23289;DHT22;11813;50.834;4.280;2024-02-15T08:46:09;14.70;99.90
23289;DHT22;11813;50.834;4.280;2024-02-15T08:48:38;14.70;99.90
23289;DHT22;11813;50.834;4.280;2024-02-15T08:51:04;14.70;99.90
23289;DHT22;11813;50.834;4.280;2024-02-15T08:53:31;14.70;99.90
23289;DHT22;11813;50.834;4.280;2024-02-15T08:55:57;14.70;99.90
23289;DHT22;11813;50.834;4.280;2024-02-15T08:58:23;14.80;99.90
23289;DHT22;11813;50.834;4.280;2024-02-15T09:00:48;14.80;99.90
23289;DHT22;11813;50.834;4.280;2024-02-15T09:03:14;14.70;99.90
23289;DHT22;11813;50.834;4.280;2024-02-15T09:05:40;14.70;99.90
23289;DHT22;11813;50.834;4.280;2024-02-15T09:08:06;14.80;99.90
23289;DHT22;11813;50.834;4.280;2024-02-15T09:10:32;14.90;99.90
23289;DHT22;11813;50.834;4.280;2024-02-15T09:12:57;14.90;99.90
23289;DHT22;11813;50.834;4.280;2024-02-15T09:15:23;15.00;99.90
23289;DHT22;11813;50.834;4.280;2024-02-15T09:17:50;15.00;99.90
23289;DHT22;11813;50.834;4.280;2024-02-15T09:20:17;15.00;99.90
23289;DHT22;11813;50.834;4.280;2024-02-15T09:22:49;15.00;99.90
23289;DHT22;11813;50.834;4.280;2024-02-15T09:25:15;15.10;99.90
23289;DHT22;11813;50.834;4.280;2024-02-15T09:27:42;15.20;99.90
23289;DHT22;11813;50.834;4.280;2024-02-15T09:30:08;15.30;99.90
23289;DHT22;11813;50.834;4.280;2024-02-15T09:32:38;15.50;99.90
23289;DHT22;11813;50.834;4.280;2024-02-15T09:35:04;15.60;99.90
23289;DHT22;11813;50.834;4.280;2024-02-15T09:37:37;15.80;99.90
23289;DHT22;11813;50.834;4.280;2024-02-15T09:40:08;15.90;99.90
23289;DHT22;11813;50.834;4.280;2024-02-15T09:42:35;15.90;99.90
23289;DHT22;11813;50.834;4.280;2024-02-15T09:45:02;16.00;99.90
23289;DHT22;11813;50.834;4.280;2024-02-15T09:47:36;16.10;99.90
23289;DHT22;11813;50.834;4.280;2024-02-15T09:50:09;16.20;99.90
23289;DHT22;11813;50.834;4.280;2024-02-15T09:52:50;16.30;99.90
23289;DHT22;11813;50.834;4.280;2024-02-15T09:55:16;16.50;99.90
23289;DHT22;11813;50.834;4.280;2024-02-15T09:57:46;16.50;99.90
23289;DHT22;11813;50.834;4.280;2024-02-15T10:00:12;16.50;99.90
23289;DHT22;11813;50.834;4.280;2024-02-15T10:02:41;16.40;99.90
23289;DHT22;11813;50.834;4.280;2024-02-15T10:05:08;16.40;99.90
23289;DHT22;11813;50.834;4.280;2024-02-15T10:07:40;16.40;99.90
23289;DHT22;11813;50.834;4.280;2024-02-15T10:10:22;16.30;99.90
23289;DHT22;11813;50.834;4.280;2024-02-15T10:12:49;16.40;99.90
23289;DHT22;11813;50.834;4.280;2024-02-15T10:15:35;16.40;99.90
23289;DHT22;11813;50.834;4.280;2024-02-15T10:18:05;16.50;99.90
23289;DHT22;11813;50.834;4.280;2024-02-15T10:20:37;16.60;99.90
23289;DHT22;11813;50.834;4.280;2024-02-15T10:25:34;16.60;99.90
23289;DHT22;11813;50.834;4.280;2024-02-15T10:28:03;16.80;99.90
23289;DHT22;11813;50.834;4.280;2024-02-15T10:30:34;16.90;99.90
23289;DHT22;11813;50.834;4.280;2024-02-15T10:33:01;17.00;99.90
23289;DHT22;11813;50.834;4.280;2024-02-15T10:35:28;17.10;99.90
23289;DHT22;11813;50.834;4.280;2024-02-15T10:38:07;17.30;99.90
23289;DHT22;11813;50.834;4.280;2024-02-15T10:40:33;17.40;99.90
23289;DHT22;11813;50.834;4.280;2024-02-15T10:42:59;17.50;99.90
23289;DHT22;11813;50.834;4.280;2024-02-15T10:45:29;17.60;99.90
23289;DHT22;11813;50.834;4.280;2024-02-15T10:47:56;17.80;99.90
23289;DHT22;11813;50.834;4.280;2024-02-15T10:50:23;17.90;99.90
23289;DHT22;11813;50.834;4.280;2024-02-15T10:52:58;18.30;99.90
23289;DHT22;11813;50.834;4.280;2024-02-15T10:55:48;18.40;99.90
23289;DHT22;11813;50.834;4.280;2024-02-15T10:58:18;18.40;99.90
23289;DHT22;11813;50.834;4.280;2024-02-15T11:00:45;18.50;99.90
23289;DHT22;11813;50.834;4.280;2024-02-15T11:03:16;18.50;99.90
23289;DHT22;11813;50.834;4.280;2024-02-15T11:05:46;18.50;99.90
23289;DHT22;11813;50.834;4.280;2024-02-15T11:08:12;18.50;99.90
23289;DHT22;11813;50.834;4.280;2024-02-15T11:10:39;18.50;99.90
23289;DHT22;11813;50.834;4.280;2024-02-15T11:13:09;18.50;99.90
23289;DHT22;11813;50.834;4.280;2024-02-15T11:18:01;18.70;99.90
23289;DHT22;11813;50.834;4.280;2024-02-15T11:23:02;18.50;99.90
23289;DHT22;11813;50.834;4.280;2024-02-15T11:25:35;18.50;99.90
23289;DHT22;11813;50.834;4.280;2024-02-15T11:30:51;18.30;99.90
23289;DHT22;11813;50.834;4.280;2024-02-15T11:33:31;18.20;99.90
23289;DHT22;11813;50.834;4.280;2024-02-15T11:38:33;18.20;99.90
23289;DHT22;11813;50.834;4.280;2024-02-15T11:41:01;18.30;99.90
23289;DHT22;11813;50.834;4.280;2024-02-15T11:43:47;18.20;99.90
23289;DHT22;11813;50.834;4.280;2024-02-15T11:46:22;18.20;99.90
23289;DHT22;11813;50.834;4.280;2024-02-15T11:48:51;18.10;99.90
23289;DHT22;11813;50.834;4.280;2024-02-15T11:51:29;18.10;99.90
23289;DHT22;11813;50.834;4.280;2024-02-15T11:54:03;18.00;99.90
23289;DHT22;11813;50.834;4.280;2024-02-15T11:56:54;18.10;99.90
23289;DHT22;11813;50.834;4.280;2024-02-15T11:59:44;18.30;99.90
23289;DHT22;11813;50.834;4.280;2024-02-15T12:02:38;18.40;99.90
23289;DHT22;11813;50.834;4.280;2024-02-15T12:05:22;18.50;99.90
23289;DHT22;11813;50.834;4.280;2024-02-15T12:08:06;18.50;99.90
23289;DHT22;11813;50.834;4.280;2024-02-15T12:11:00;18.30;99.90
23289;DHT22;11813;50.834;4.280;2024-02-15T12:13:50;18.20;99.90
23289;DHT22;11813;50.834;4.280;2024-02-15T12:16:35;18.20;99.90
23289;DHT22;11813;50.834;4.280;2024-02-15T12:19:33;18.10;99.90
23289;DHT22;11813;50.834;4.280;2024-02-15T12:22:00;18.10;99.90
23289;DHT22;11813;50.834;4.280;2024-02-15T12:24:25;18.00;99.90
23289;DHT22;11813;50.834;4.280;2024-02-15T12:27:00;18.00;99.90
23289;DHT22;11813;50.834;4.280;2024-02-15T12:29:26;18.00;99.90
23289;DHT22;11813;50.834;4.280;2024-02-15T12:31:52;18.20;99.90
23289;DHT22;11813;50.834;4.280;2024-02-15T12:34:20;18.30;99.90
23289;DHT22;11813;50.834;4.280;2024-02-15T12:36:46;18.30;99.90
23289;DHT22;11813;50.834;4.280;2024-02-15T12:39:14;18.30;99.90
23289;DHT22;11813;50.834;4.280;2024-02-15T12:41:49;18.20;99.90
23289;DHT22;11813;50.834;4.280;2024-02-15T12:44:17;18.40;99.90
23289;DHT22;11813;50.834;4.280;2024-02-15T12:46:43;18.60;99.90
23289;DHT22;11813;50.834;4.280;2024-02-15T12:49:27;18.70;99.90
23289;DHT22;11813;50.834;4.280;2024-02-15T12:51:54;18.90;99.90
23289;DHT22;11813;50.834;4.280;2024-02-15T12:54:39;18.90;99.90
23289;DHT22;11813;50.834;4.280;2024-02-15T12:57:08;18.90;99.90
23289;DHT22;11813;50.834;4.280;2024-02-15T12:59:39;19.10;99.90
23289;DHT22;11813;50.834;4.280;2024-02-15T13:02:05;19.20;99.90
23289;DHT22;11813;50.834;4.280;2024-02-15T13:04:30;19.10;99.90
23289;DHT22;11813;50.834;4.280;2024-02-15T13:06:56;19.10;99.90
23289;DHT22;11813;50.834;4.280;2024-02-15T13:09:21;19.10;99.90
23289;DHT22;11813;50.834;4.280;2024-02-15T13:11:48;19.30;99.90
23289;DHT22;11813;50.834;4.280;2024-02-15T13:14:15;19.60;99.90
23289;DHT22;11813;50.834;4.280;2024-02-15T13:16:41;19.90;99.90
23289;DHT22;11813;50.834;4.280;2024-02-15T13:19:08;20.10;99.90
23289;DHT22;11813;50.834;4.280;2024-02-15T13:21:34;20.10;99.90
23289;DHT22;11813;50.834;4.280;2024-02-15T13:24:00;20.00;99.90
23289;DHT22;11813;50.834;4.280;2024-02-15T13:26:30;20.00;99.90
23289;DHT22;11813;50.834;4.280;2024-02-15T13:28:56;20.10;99.90
23289;DHT22;11813;50.834;4.280;2024-02-15T13:31:21;20.40;99.90
23289;DHT22;11813;50.834;4.280;2024-02-15T13:33:48;20.40;99.90
23289;DHT22;11813;50.834;4.280;2024-02-15T13:36:13;20.50;99.90
23289;DHT22;11813;50.834;4.280;2024-02-15T13:38:41;20.60;99.90
23289;DHT22;11813;50.834;4.280;2024-02-15T13:41:07;20.70;99.90
23289;DHT22;11813;50.834;4.280;2024-02-15T13:43:34;20.80;99.90
23289;DHT22;11813;50.834;4.280;2024-02-15T13:45:59;20.80;99.90
23289;DHT22;11813;50.834;4.280;2024-02-15T13:48:29;20.60;99.90
23289;DHT22;11813;50.834;4.280;2024-02-15T13:50:55;20.40;99.90
23289;DHT22;11813;50.834;4.280;2024-02-15T13:53:21;20.10;99.90
23289;DHT22;11813;50.834;4.280;2024-02-15T13:55:47;19.80;99.90
23289;DHT22;11813;50.834;4.280;2024-02-15T13:58:13;19.60;99.90
23289;DHT22;11813;50.834;4.280;2024-02-15T14:00:40;19.30;99.90
23289;DHT22;11813;50.834;4.280;2024-02-15T14:03:07;19.10;99.90
23289;DHT22;11813;50.834;4.280;2024-02-15T14:05:35;19.30;99.90
23289;DHT22;11813;50.834;4.280;2024-02-15T14:08:05;19.20;99.90
23289;DHT22;11813;50.834;4.280;2024-02-15T14:10:32;19.20;99.90
23289;DHT22;11813;50.834;4.280;2024-02-15T14:12:58;19.10;99.90
23289;DHT22;11813;50.834;4.280;2024-02-15T14:15:25;19.10;99.90
23289;DHT22;11813;50.834;4.280;2024-02-15T14:17:51;19.10;99.90
23289;DHT22;11813;50.834;4.280;2024-02-15T14:20:17;19.00;99.90
23289;DHT22;11813;50.834;4.280;2024-02-15T14:22:46;18.90;99.90
23289;DHT22;11813;50.834;4.280;2024-02-15T14:25:18;18.90;99.90
23289;DHT22;11813;50.834;4.280;2024-02-15T14:27:44;18.90;99.90
23289;DHT22;11813;50.834;4.280;2024-02-15T14:30:10;18.90;99.90
23289;DHT22;11813;50.834;4.280;2024-02-15T14:32:54;18.90;99.90
23289;DHT22;11813;50.834;4.280;2024-02-15T14:35:33;18.90;99.90
23289;DHT22;11813;50.834;4.280;2024-02-15T14:38:03;18.90;99.90
23289;DHT22;11813;50.834;4.280;2024-02-15T14:40:33;19.10;99.90
23289;DHT22;11813;50.834;4.280;2024-02-15T14:42:58;19.10;99.90
23289;DHT22;11813;50.834;4.280;2024-02-15T14:45:25;19.00;99.90
23289;DHT22;11813;50.834;4.280;2024-02-15T14:47:51;19.00;99.90
23289;DHT22;11813;50.834;4.280;2024-02-15T14:50:17;19.00;99.90
23289;DHT22;11813;50.834;4.280;2024-02-15T14:52:42;19.00;99.90
23289;DHT22;11813;50.834;4.280;2024-02-15T14:55:08;19.10;99.90
23289;DHT22;11813;50.834;4.280;2024-02-15T14:57:34;18.90;99.90
23289;DHT22;11813;50.834;4.280;2024-02-15T15:00:04;18.80;99.90
23289;DHT22;11813;50.834;4.280;2024-02-15T15:02:30;18.70;99.90
23289;DHT22;11813;50.834;4.280;2024-02-15T15:04:56;18.70;99.90
23289;DHT22;11813;50.834;4.280;2024-02-15T15:07:40;18.70;99.90
23289;DHT22;11813;50.834;4.280;2024-02-15T15:10:24;18.80;99.90
23289;DHT22;11813;50.834;4.280;2024-02-15T15:13:08;18.90;99.90
23289;DHT22;11813;50.834;4.280;2024-02-15T15:15:35;19.00;99.90
23289;DHT22;11813;50.834;4.280;2024-02-15T15:18:02;19.20;99.90
23289;DHT22;11813;50.834;4.280;2024-02-15T15:20:30;19.40;99.90
23289;DHT22;11813;50.834;4.280;2024-02-15T15:22:55;19.40;99.90
23289;DHT22;11813;50.834;4.280;2024-02-15T15:25:21;19.30;99.90
23289;DHT22;11813;50.834;4.280;2024-02-15T15:27:49;19.40;99.90
23289;DHT22;11813;50.834;4.280;2024-02-15T15:30:16;19.40;99.90
23289;DHT22;11813;50.834;4.280;2024-02-15T15:32:44;19.40;99.90
23289;DHT22;11813;50.834;4.280;2024-02-15T15:35:12;19.50;99.90
23289;DHT22;11813;50.834;4.280;2024-02-15T15:37:38;19.50;99.90
23289;DHT22;11813;50.834;4.280;2024-02-15T15:40:05;19.20;99.90
23289;DHT22;11813;50.834;4.280;2024-02-15T15:42:34;19.30;99.90
23289;DHT22;11813;50.834;4.280;2024-02-15T15:45:01;19.20;99.90
23289;DHT22;11813;50.834;4.280;2024-02-15T15:47:27;19.00;99.90
23289;DHT22;11813;50.834;4.280;2024-02-15T15:49:52;18.90;99.90